sensor_id;sensor_type;location;lat;lon;timestamp;pressure;altitude;pressure_sealevel;temperature;humidity
64628;BME280;68467;50.960;0.314;2023-03-21T00:01:19;99772.11;;;5.00;100.00
64628;BME280;68467;50.960;0.314;2023-03-21T00:03:46;99770.59;;;5.11;100.00
64628;BME280;68467;50.960;0.314;2023-03-21T00:06:13;99766.36;;;5.58;100.00
64628;BME280;68467;50.960;0.314;2023-03-21T00:08:40;99763.30;;;5.27;100.00
64628;BME280;68467;50.960;0.314;2023-03-21T00:11:09;99758.22;;;5.19;100.00
64628;BME280;68467;50.960;0.314;2023-03-21T00:13:38;99748.39;;;4.98;100.00
64628;BME280;68467;50.960;0.314;2023-03-21T00:16:08;99744.38;;;5.38;100.00
64628;BME280;68467;50.960;0.314;2023-03-21T00:18:36;99736.95;;;5.21;100.00
64628;BME280;68467;50.960;0.314;2023-03-21T00:21:04;99737.92;;;5.18;100.00
64628;BME280;68467;50.960;0.314;2023-03-21T00:23:32;99732.80;;;5.17;100.00
64628;BME280;68467;50.960;0.314;2023-03-21T00:26:00;99733.66;;;5.07;100.00
64628;BME280;68467;50.960;0.314;2023-03-21T00:28:27;99724.01;;;5.18;100.00
64628;BME280;68467;50.960;0.314;2023-03-21T00:30:57;99724.20;;;5.06;100.00
64628;BME280;68467;50.960;0.314;2023-03-21T00:33:25;99723.95;;;4.99;100.00
64628;BME280;68467;50.960;0.314;2023-03-21T00:35:53;99715.00;;;4.80;100.00
64628;BME280;68467;50.960;0.314;2023-03-21T00:38:22;99711.85;;;5.09;100.00
64628;BME280;68467;50.960;0.314;2023-03-21T00:44:11;99707.26;;;5.49;100.00
64628;BME280;68467;50.960;0.314;2023-03-21T00:46:39;99705.06;;;5.19;100.00
64628;BME280;68467;50.960;0.314;2023-03-21T00:49:06;99710.52;;;5.23;100.00
64628;BME280;68467;50.960;0.314;2023-03-21T00:51:34;99707.21;;;4.86;100.00
64628;BME280;68467;50.960;0.314;2023-03-21T00:54:01;99702.51;;;5.57;100.00
64628;BME280;68467;50.960;0.314;2023-03-21T00:56:28;99701.09;;;5.48;100.00
64628;BME280;68467;50.960;0.314;2023-03-21T00:58:56;99701.24;;;5.10;100.00
64628;BME280;68467;50.960;0.314;2023-03-21T01:01:23;99699.04;;;5.24;100.00
64628;BME280;68467;50.960;0.314;2023-03-21T01:03:50;99696.11;;;5.17;100.00
64628;BME280;68467;50.960;0.314;2023-03-21T01:06:18;99696.25;;;5.50;100.00
64628;BME280;68467;50.960;0.314;2023-03-21T01:08:46;99692.24;;;5.16;100.00
64628;BME280;68467;50.960;0.314;2023-03-21T01:11:17;99685.49;;;4.94;100.00
64628;BME280;68467;50.960;0.314;2023-03-21T01:13:45;99678.86;;;5.08;100.00
64628;BME280;68467;50.960;0.314;2023-03-21T01:16:13;99678.07;;;4.91;100.00
64628;BME280;68467;50.960;0.314;2023-03-21T01:18:40;99677.78;;;5.24;100.00
64628;BME280;68467;50.960;0.314;2023-03-21T01:21:10;99662.72;;;5.10;100.00
64628;BME280;68467;50.960;0.314;2023-03-21T01:23:39;99662.00;;;5.11;100.00
64628;BME280;68467;50.960;0.314;2023-03-21T01:26:08;99657.17;;;5.26;100.00
64628;BME280;68467;50.960;0.314;2023-03-21T01:28:38;99651.92;;;5.21;100.00
64628;BME280;68467;50.960;0.314;2023-03-21T01:31:06;99657.60;;;5.46;100.00
64628;BME280;68467;50.960;0.314;2023-03-21T01:33:34;99650.81;;;5.31;100.00
64628;BME280;68467;50.960;0.314;2023-03-21T01:36:02;99659.54;;;5.16;100.00
64628;BME280;68467;50.960;0.314;2023-03-21T01:38:29;99650.28;;;5.05;100.00
64628;BME280;68467;50.960;0.314;2023-03-21T01:40:58;99649.38;;;5.29;100.00
64628;BME280;68467;50.960;0.314;2023-03-21T01:43:28;99644.33;;;5.45;100.00
64628;BME280;68467;50.960;0.314;2023-03-21T01:46:34;99647.46;;;5.33;100.00
64628;BME280;68467;50.960;0.314;2023-03-21T01:49:05;99647.51;;;5.47;100.00
64628;BME280;68467;50.960;0.314;2023-03-21T01:51:36;99647.32;;;5.53;100.00
64628;BME280;68467;50.960;0.314;2023-03-21T01:54:07;99651.04;;;4.97;100.00
64628;BME280;68467;50.960;0.314;2023-03-21T01:56:38;99647.18;;;5.21;100.00
64628;BME280;68467;50.960;0.314;2023-03-21T01:59:10;99646.67;;;4.81;100.00
64628;BME280;68467;50.960;0.314;2023-03-21T02:01:38;99640.87;;;5.20;100.00
64628;BME280;68467;50.960;0.314;2023-03-21T02:04:07;99639.71;;;5.36;100.00
64628;BME280;68467;50.960;0.314;2023-03-21T02:06:40;99644.13;;;4.91;100.00
64628;BME280;68467;50.960;0.314;2023-03-21T02:09:12;99640.97;;;5.05;100.00
64628;BME280;68467;50.960;0.314;2023-03-21T02:11:40;99633.66;;;5.14;100.00
64628;BME280;68467;50.960;0.314;2023-03-21T02:14:12;99640.58;;;5.22;100.00
64628;BME280;68467;50.960;0.314;2023-03-21T02:16:47;99626.58;;;4.76;100.00
64628;BME280;68467;50.960;0.314;2023-03-21T02:19:36;99634.40;;;5.08;100.00
64628;BME280;68467;50.960;0.314;2023-03-21T02:22:38;99632.01;;;5.44;100.00
64628;BME280;68467;50.960;0.314;2023-03-21T02:27:36;99614.60;;;6.26;100.00
64628;BME280;68467;50.960;0.314;2023-03-21T02:30:26;99602.45;;;4.97;100.00
64628;BME280;68467;50.960;0.314;2023-03-21T02:33:16;99597.37;;;5.13;100.00
64628;BME280;68467;50.960;0.314;2023-03-21T02:35:55;99590.36;;;5.39;100.00
64628;BME280;68467;50.960;0.314;2023-03-21T02:38:30;99576.78;;;5.24;100.00
64628;BME280;68467;50.960;0.314;2023-03-21T02:41:05;99577.80;;;4.79;100.00
64628;BME280;68467;50.960;0.314;2023-03-21T02:43:43;99574.82;;;5.05;100.00
64628;BME280;68467;50.960;0.314;2023-03-21T02:46:15;99574.22;;;4.88;100.00
64628;BME280;68467;50.960;0.314;2023-03-21T02:48:48;99574.46;;;5.30;100.00
64628;BME280;68467;50.960;0.314;2023-03-21T02:51:21;99580.24;;;5.41;100.00
64628;BME280;68467;50.960;0.314;2023-03-21T02:53:53;99577.98;;;5.20;100.00
64628;BME280;68467;50.960;0.314;2023-03-21T02:56:24;99572.90;;;5.47;100.00
64628;BME280;68467;50.960;0.314;2023-03-21T02:58:52;99564.06;;;5.48;100.00
64628;BME280;68467;50.960;0.314;2023-03-21T03:01:20;99569.73;;;5.02;100.00
64628;BME280;68467;50.960;0.314;2023-03-21T03:03:47;99575.81;;;4.98;100.00
64628;BME280;68467;50.960;0.314;2023-03-21T03:06:19;99571.36;;;5.18;100.00
64628;BME280;68467;50.960;0.314;2023-03-21T03:08:58;99574.02;;;5.66;100.00
64628;BME280;68467;50.960;0.314;2023-03-21T03:11:30;99574.85;;;5.68;100.00
64628;BME280;68467;50.960;0.314;2023-03-21T03:14:08;99564.92;;;5.29;100.00
64628;BME280;68467;50.960;0.314;2023-03-21T03:16:41;99567.45;;;5.47;100.00
64628;BME280;68467;50.960;0.314;2023-03-21T03:19:17;99565.21;;;5.65;100.00
64628;BME280;68467;50.960;0.314;2023-03-21T03:21:55;99568.75;;;5.19;100.00
64628;BME280;68467;50.960;0.314;2023-03-21T03:24:28;99559.70;;;5.40;100.00
64628;BME280;68467;50.960;0.314;2023-03-21T03:27:00;99560.07;;;5.36;100.00
64628;BME280;68467;50.960;0.314;2023-03-21T03:29:31;99562.59;;;5.17;100.00
64628;BME280;68467;50.960;0.314;2023-03-21T03:32:02;99558.97;;;5.70;100.00
64628;BME280;68467;50.960;0.314;2023-03-21T03:34:35;99558.43;;;5.24;100.00
64628;BME280;68467;50.960;0.314;2023-03-21T03:37:06;99554.87;;;5.47;100.00
64628;BME280;68467;50.960;0.314;2023-03-21T03:39:39;99541.93;;;5.92;100.00
64628;BME280;68467;50.960;0.314;2023-03-21T03:42:13;99546.00;;;6.07;100.00
64628;BME280;68467;50.960;0.314;2023-03-21T03:44:42;99539.02;;;5.71;100.00
64628;BME280;68467;50.960;0.314;2023-03-21T03:47:11;99539.96;;;5.35;100.00
64628;BME280;68467;50.960;0.314;2023-03-21T03:49:46;99525.78;;;5.63;100.00
64628;BME280;68467;50.960;0.314;2023-03-21T03:52:18;99530.83;;;5.57;100.00
64628;BME280;68467;50.960;0.314;2023-03-21T03:54:49;99531.40;;;5.96;100.00
64628;BME280;68467;50.960;0.314;2023-03-21T03:57:17;99533.32;;;5.87;100.00
64628;BME280;68467;50.960;0.314;2023-03-21T03:59:45;99526.11;;;6.43;100.00
64628;BME280;68467;50.960;0.314;2023-03-21T04:02:13;99520.54;;;6.56;100.00
64628;BME280;68467;50.960;0.314;2023-03-21T04:04:40;99512.51;;;6.71;100.00
64628;BME280;68467;50.960;0.314;2023-03-21T04:07:07;99512.34;;;6.56;100.00
64628;BME280;68467;50.960;0.314;2023-03-21T04:09:34;99510.62;;;6.01;100.00
64628;BME280;68467;50.960;0.314;2023-03-21T04:12:01;99513.14;;;5.50;100.00
64628;BME280;68467;50.960;0.314;2023-03-21T04:14:28;99509.93;;;5.21;100.00
64628;BME280;68467;50.960;0.314;2023-03-21T04:16:55;99514.78;;;4.57;100.00
64628;BME280;68467;50.960;0.314;2023-03-21T04:19:22;99506.21;;;4.94;100.00
64628;BME280;68467;50.960;0.314;2023-03-21T04:21:48;99511.54;;;4.63;100.00
64628;BME280;68467;50.960;0.314;2023-03-21T04:24:16;99515.70;;;4.07;100.00
64628;BME280;68467;50.960;0.314;2023-03-21T04:26:43;99526.71;;;4.36;100.00
64628;BME280;68467;50.960;0.314;2023-03-21T04:29:10;99515.32;;;4.54;100.00
64628;BME280;68467;50.960;0.314;2023-03-21T04:31:37;99509.08;;;4.45;100.00
64628;BME280;68467;50.960;0.314;2023-03-21T04:34:05;99488.48;;;4.46;100.00
64628;BME280;68467;50.960;0.314;2023-03-21T04:36:32;99507.57;;;4.27;100.00
64628;BME280;68467;50.960;0.314;2023-03-21T04:38:59;99513.71;;;4.49;100.00
64628;BME280;68467;50.960;0.314;2023-03-21T04:41:27;99520.64;;;4.39;100.00
64628;BME280;68467;50.960;0.314;2023-03-21T04:43:55;99508.16;;;4.59;100.00
64628;BME280;68467;50.960;0.314;2023-03-21T04:46:23;99513.03;;;4.55;100.00
64628;BME280;68467;50.960;0.314;2023-03-21T04:48:49;99503.36;;;4.35;100.00
64628;BME280;68467;50.960;0.314;2023-03-21T04:51:17;99500.29;;;4.40;100.00
64628;BME280;68467;50.960;0.314;2023-03-21T04:53:44;99512.28;;;4.07;100.00
64628;BME280;68467;50.960;0.314;2023-03-21T04:56:12;99510.76;;;4.23;100.00
64628;BME280;68467;50.960;0.314;2023-03-21T04:58:39;99506.82;;;4.43;100.00
64628;BME280;68467;50.960;0.314;2023-03-21T05:01:08;99501.04;;;4.16;100.00
64628;BME280;68467;50.960;0.314;2023-03-21T05:03:35;99513.19;;;4.39;100.00
64628;BME280;68467;50.960;0.314;2023-03-21T05:06:02;99511.58;;;4.23;100.00
64628;BME280;68467;50.960;0.314;2023-03-21T05:08:30;99515.28;;;4.38;100.00
64628;BME280;68467;50.960;0.314;2023-03-21T05:10:57;99502.76;;;3.96;100.00
64628;BME280;68467;50.960;0.314;2023-03-21T05:13:24;99502.33;;;4.71;100.00
64628;BME280;68467;50.960;0.314;2023-03-21T05:15:51;99503.05;;;4.78;100.00
64628;BME280;68467;50.960;0.314;2023-03-21T05:18:18;99505.15;;;4.41;100.00
64628;BME280;68467;50.960;0.314;2023-03-21T05:20:45;99494.55;;;4.40;100.00
64628;BME280;68467;50.960;0.314;2023-03-21T05:23:12;99492.12;;;4.71;100.00
64628;BME280;68467;50.960;0.314;2023-03-21T05:25:40;99481.49;;;5.05;100.00
64628;BME280;68467;50.960;0.314;2023-03-21T05:28:07;99485.00;;;4.87;100.00
64628;BME280;68467;50.960;0.314;2023-03-21T05:30:34;99479.46;;;4.87;100.00
64628;BME280;68467;50.960;0.314;2023-03-21T05:33:02;99483.13;;;5.03;100.00
64628;BME280;68467;50.960;0.314;2023-03-21T05:35:29;99475.15;;;5.02;100.00
64628;BME280;68467;50.960;0.314;2023-03-21T05:37:56;99472.19;;;4.83;100.00
64628;BME280;68467;50.960;0.314;2023-03-21T05:40:23;99462.86;;;4.60;100.00
64628;BME280;68467;50.960;0.314;2023-03-21T05:42:50;99464.41;;;4.92;100.00
64628;BME280;68467;50.960;0.314;2023-03-21T05:45:17;99457.46;;;4.41;100.00
64628;BME280;68467;50.960;0.314;2023-03-21T05:47:44;99467.19;;;4.66;100.00
64628;BME280;68467;50.960;0.314;2023-03-21T05:50:13;99475.31;;;4.88;100.00
64628;BME280;68467;50.960;0.314;2023-03-21T05:52:40;99472.10;;;5.07;100.00
64628;BME280;68467;50.960;0.314;2023-03-21T05:55:07;99474.54;;;5.04;100.00
64628;BME280;68467;50.960;0.314;2023-03-21T05:57:35;99469.99;;;5.02;100.00
64628;BME280;68467;50.960;0.314;2023-03-21T06:00:03;99469.30;;;4.95;100.00
64628;BME280;68467;50.960;0.314;2023-03-21T06:02:32;99480.75;;;4.93;100.00
64628;BME280;68467;50.960;0.314;2023-03-21T06:04:59;99481.08;;;4.86;100.00
64628;BME280;68467;50.960;0.314;2023-03-21T06:07:26;99464.68;;;5.13;100.00
64628;BME280;68467;50.960;0.314;2023-03-21T06:09:53;99470.38;;;4.73;100.00
64628;BME280;68467;50.960;0.314;2023-03-21T06:12:20;99473.34;;;4.72;100.00
64628;BME280;68467;50.960;0.314;2023-03-21T06:14:47;99465.67;;;4.92;100.00
64628;BME280;68467;50.960;0.314;2023-03-21T06:17:15;99455.95;;;4.56;100.00
64628;BME280;68467;50.960;0.314;2023-03-21T06:19:42;99458.67;;;4.46;100.00
64628;BME280;68467;50.960;0.314;2023-03-21T06:22:09;99460.86;;;4.57;100.00
64628;BME280;68467;50.960;0.314;2023-03-21T06:24:36;99455.40;;;4.61;100.00
64628;BME280;68467;50.960;0.314;2023-03-21T06:27:04;99451.79;;;4.80;100.00
64628;BME280;68467;50.960;0.314;2023-03-21T06:29:32;99446.29;;;4.50;100.00
64628;BME280;68467;50.960;0.314;2023-03-21T06:32:00;99443.39;;;4.65;100.00
64628;BME280;68467;50.960;0.314;2023-03-21T06:34:27;99438.06;;;4.57;100.00
64628;BME280;68467;50.960;0.314;2023-03-21T06:36:55;99429.39;;;4.45;100.00
64628;BME280;68467;50.960;0.314;2023-03-21T06:39:22;99429.62;;;4.58;100.00
64628;BME280;68467;50.960;0.314;2023-03-21T06:41:49;99435.82;;;4.63;100.00
64628;BME280;68467;50.960;0.314;2023-03-21T06:44:16;99434.17;;;4.84;100.00
64628;BME280;68467;50.960;0.314;2023-03-21T06:46:43;99424.03;;;4.63;100.00
64628;BME280;68467;50.960;0.314;2023-03-21T06:49:10;99414.50;;;4.76;100.00
64628;BME280;68467;50.960;0.314;2023-03-21T06:51:37;99428.37;;;4.62;100.00
64628;BME280;68467;50.960;0.314;2023-03-21T06:54:04;99434.29;;;4.42;100.00
64628;BME280;68467;50.960;0.314;2023-03-21T06:56:31;99432.33;;;4.71;100.00
64628;BME280;68467;50.960;0.314;2023-03-21T06:58:59;99435.36;;;4.85;100.00
64628;BME280;68467;50.960;0.314;2023-03-21T07:01:26;99445.98;;;4.65;100.00
64628;BME280;68467;50.960;0.314;2023-03-21T07:03:54;99444.89;;;4.94;100.00
64628;BME280;68467;50.960;0.314;2023-03-21T07:06:21;99438.06;;;5.08;100.00
64628;BME280;68467;50.960;0.314;2023-03-21T07:08:49;99445.86;;;4.87;100.00
64628;BME280;68467;50.960;0.314;2023-03-21T07:11:16;99437.08;;;4.96;100.00
64628;BME280;68467;50.960;0.314;2023-03-21T07:13:43;99446.98;;;4.96;100.00
64628;BME280;68467;50.960;0.314;2023-03-21T07:16:10;99449.33;;;4.78;100.00
64628;BME280;68467;50.960;0.314;2023-03-21T07:18:38;99445.07;;;4.82;100.00
64628;BME280;68467;50.960;0.314;2023-03-21T07:21:06;99446.75;;;4.96;100.00
64628;BME280;68467;50.960;0.314;2023-03-21T07:23:33;99445.25;;;4.97;100.00
64628;BME280;68467;50.960;0.314;2023-03-21T07:26:00;99444.74;;;5.03;100.00
64628;BME280;68467;50.960;0.314;2023-03-21T07:28:27;99453.65;;;5.09;100.00
64628;BME280;68467;50.960;0.314;2023-03-21T07:30:56;99456.24;;;4.99;100.00
64628;BME280;68467;50.960;0.314;2023-03-21T07:33:24;99458.98;;;4.73;100.00
64628;BME280;68467;50.960;0.314;2023-03-21T07:35:52;99449.77;;;5.33;100.00
64628;BME280;68467;50.960;0.314;2023-03-21T07:38:29;99447.58;;;5.18;100.00
64628;BME280;68467;50.960;0.314;2023-03-21T07:41:02;99449.54;;;4.93;100.00
64628;BME280;68467;50.960;0.314;2023-03-21T07:43:34;99452.71;;;4.91;100.00
64628;BME280;68467;50.960;0.314;2023-03-21T07:46:07;99453.17;;;5.31;100.00
64628;BME280;68467;50.960;0.314;2023-03-21T07:48:34;99448.31;;;5.27;100.00
64628;BME280;68467;50.960;0.314;2023-03-21T07:51:02;99443.22;;;5.23;100.00
64628;BME280;68467;50.960;0.314;2023-03-21T07:53:30;99440.84;;;5.44;100.00
64628;BME280;68467;50.960;0.314;2023-03-21T07:55:57;99432.02;;;5.11;100.00
64628;BME280;68467;50.960;0.314;2023-03-21T07:58:25;99445.73;;;4.98;100.00
64628;BME280;68467;50.960;0.314;2023-03-21T08:00:52;99444.22;;;5.21;100.00
64628;BME280;68467;50.960;0.314;2023-03-21T08:03:20;99438.64;;;5.54;100.00
64628;BME280;68467;50.960;0.314;2023-03-21T08:05:47;99442.82;;;5.16;100.00
64628;BME280;68467;50.960;0.314;2023-03-21T08:08:14;99441.96;;;5.16;100.00
64628;BME280;68467;50.960;0.314;2023-03-21T08:10:42;99439.44;;;5.35;100.00
64628;BME280;68467;50.960;0.314;2023-03-21T08:13:09;99441.87;;;5.57;100.00
64628;BME280;68467;50.960;0.314;2023-03-21T08:15:36;99442.76;;;5.15;100.00
64628;BME280;68467;50.960;0.314;2023-03-21T08:18:03;99440.62;;;5.86;100.00
64628;BME280;68467;50.960;0.314;2023-03-21T08:20:30;99439.22;;;5.90;100.00
64628;BME280;68467;50.960;0.314;2023-03-21T08:22:57;99440.95;;;5.54;100.00
64628;BME280;68467;50.960;0.314;2023-03-21T08:25:24;99441.03;;;5.57;100.00
64628;BME280;68467;50.960;0.314;2023-03-21T08:27:52;99442.45;;;5.75;100.00
64628;BME280;68467;50.960;0.314;2023-03-21T08:30:26;99447.62;;;5.76;100.00
64628;BME280;68467;50.960;0.314;2023-03-21T08:32:56;99448.94;;;5.81;100.00
64628;BME280;68467;50.960;0.314;2023-03-21T08:35:24;99444.26;;;6.08;100.00
64628;BME280;68467;50.960;0.314;2023-03-21T08:37:51;99441.39;;;5.78;100.00
64628;BME280;68467;50.960;0.314;2023-03-21T08:40:19;99446.28;;;6.07;100.00
64628;BME280;68467;50.960;0.314;2023-03-21T08:42:46;99439.07;;;6.51;100.00
64628;BME280;68467;50.960;0.314;2023-03-21T08:45:15;99436.25;;;6.11;100.00
64628;BME280;68467;50.960;0.314;2023-03-21T08:47:42;99436.47;;;6.08;100.00
64628;BME280;68467;50.960;0.314;2023-03-21T08:50:13;99440.73;;;5.98;100.00
64628;BME280;68467;50.960;0.314;2023-03-21T08:52:41;99441.45;;;6.06;100.00
64628;BME280;68467;50.960;0.314;2023-03-21T08:55:09;99444.58;;;6.06;100.00
64628;BME280;68467;50.960;0.314;2023-03-21T08:57:36;99450.95;;;5.69;100.00
64628;BME280;68467;50.960;0.314;2023-03-21T09:00:04;99450.58;;;5.93;100.00
64628;BME280;68467;50.960;0.314;2023-03-21T09:02:32;99451.26;;;5.81;100.00
64628;BME280;68467;50.960;0.314;2023-03-21T09:04:58;99454.45;;;5.82;100.00
64628;BME280;68467;50.960;0.314;2023-03-21T09:07:25;99454.84;;;6.06;100.00
64628;BME280;68467;50.960;0.314;2023-03-21T09:09:52;99456.41;;;5.75;100.00
64628;BME280;68467;50.960;0.314;2023-03-21T09:12:19;99448.53;;;5.94;100.00
64628;BME280;68467;50.960;0.314;2023-03-21T09:14:46;99439.90;;;5.82;100.00
64628;BME280;68467;50.960;0.314;2023-03-21T09:17:13;99440.98;;;6.25;100.00
64628;BME280;68467;50.960;0.314;2023-03-21T09:19:41;99441.05;;;5.84;100.00
64628;BME280;68467;50.960;0.314;2023-03-21T09:22:08;99434.82;;;6.48;100.00
64628;BME280;68467;50.960;0.314;2023-03-21T09:24:35;99438.50;;;5.95;100.00
64628;BME280;68467;50.960;0.314;2023-03-21T09:27:03;99441.72;;;5.95;100.00
64628;BME280;68467;50.960;0.314;2023-03-21T09:29:30;99448.17;;;6.01;100.00
64628;BME280;68467;50.960;0.314;2023-03-21T09:31:57;99444.77;;;6.12;100.00
64628;BME280;68467;50.960;0.314;2023-03-21T09:34:24;99438.46;;;6.18;100.00
64628;BME280;68467;50.960;0.314;2023-03-21T09:36:51;99433.78;;;6.07;100.00
64628;BME280;68467;50.960;0.314;2023-03-21T09:39:18;99429.01;;;6.62;100.00
64628;BME280;68467;50.960;0.314;2023-03-21T09:42:09;99441.91;;;6.45;100.00
64628;BME280;68467;50.960;0.314;2023-03-21T09:44:50;99436.24;;;6.85;100.00
64628;BME280;68467;50.960;0.314;2023-03-21T09:47:21;99434.81;;;6.68;100.00
64628;BME280;68467;50.960;0.314;2023-03-21T09:49:52;99430.86;;;6.20;100.00
64628;BME280;68467;50.960;0.314;2023-03-21T09:52:24;99431.51;;;6.56;100.00
64628;BME280;68467;50.960;0.314;2023-03-21T09:54:52;99427.11;;;6.46;100.00
64628;BME280;68467;50.960;0.314;2023-03-21T09:57:28;99420.80;;;6.43;100.00
64628;BME280;68467;50.960;0.314;2023-03-21T09:59:58;99425.53;;;6.07;100.00
64628;BME280;68467;50.960;0.314;2023-03-21T10:02:35;99429.03;;;6.21;100.00
64628;BME280;68467;50.960;0.314;2023-03-21T10:05:11;99424.05;;;5.98;100.00
64628;BME280;68467;50.960;0.314;2023-03-21T10:07:43;99431.68;;;6.04;100.00
64628;BME280;68467;50.960;0.314;2023-03-21T10:10:15;99437.78;;;6.54;100.00
64628;BME280;68467;50.960;0.314;2023-03-21T10:12:44;99440.99;;;6.27;100.00
64628;BME280;68467;50.960;0.314;2023-03-21T10:15:17;99445.54;;;6.58;100.00
64628;BME280;68467;50.960;0.314;2023-03-21T10:17:48;99442.58;;;6.62;100.00
64628;BME280;68467;50.960;0.314;2023-03-21T10:20:19;99431.77;;;6.48;100.00
64628;BME280;68467;50.960;0.314;2023-03-21T10:22:50;99439.38;;;6.49;100.00
64628;BME280;68467;50.960;0.314;2023-03-21T10:25:20;99440.79;;;5.85;100.00
64628;BME280;68467;50.960;0.314;2023-03-21T10:27:49;99442.87;;;6.09;100.00
64628;BME280;68467;50.960;0.314;2023-03-21T10:30:27;99427.82;;;6.21;100.00
64628;BME280;68467;50.960;0.314;2023-03-21T10:32:58;99423.49;;;6.17;100.00
64628;BME280;68467;50.960;0.314;2023-03-21T10:35:27;99411.64;;;6.83;100.00
64628;BME280;68467;50.960;0.314;2023-03-21T10:37:54;99416.67;;;6.30;100.00
64628;BME280;68467;50.960;0.314;2023-03-21T10:40:21;99427.81;;;6.43;100.00
64628;BME280;68467;50.960;0.314;2023-03-21T10:42:48;99416.56;;;6.11;100.00
64628;BME280;68467;50.960;0.314;2023-03-21T10:45:17;99412.19;;;6.49;100.00
64628;BME280;68467;50.960;0.314;2023-03-21T10:47:47;99421.97;;;6.57;100.00
64628;BME280;68467;50.960;0.314;2023-03-21T10:50:16;99414.51;;;6.94;100.00
64628;BME280;68467;50.960;0.314;2023-03-21T10:52:48;99427.65;;;6.74;100.00
64628;BME280;68467;50.960;0.314;2023-03-21T10:55:20;99417.27;;;7.01;100.00
64628;BME280;68467;50.960;0.314;2023-03-21T10:57:52;99427.19;;;7.29;100.00
64628;BME280;68467;50.960;0.314;2023-03-21T11:00:23;99420.04;;;7.19;100.00
64628;BME280;68467;50.960;0.314;2023-03-21T11:02:51;99420.78;;;6.89;100.00
64628;BME280;68467;50.960;0.314;2023-03-21T11:05:21;99419.51;;;7.16;100.00
64628;BME280;68467;50.960;0.314;2023-03-21T11:08:12;99416.27;;;6.97;100.00
64628;BME280;68467;50.960;0.314;2023-03-21T11:10:51;99407.37;;;7.15;100.00
64628;BME280;68467;50.960;0.314;2023-03-21T11:13:23;99406.87;;;7.13;100.00
64628;BME280;68467;50.960;0.314;2023-03-21T11:15:53;99402.75;;;6.84;100.00
64628;BME280;68467;50.960;0.314;2023-03-21T11:18:23;99403.78;;;7.47;100.00
64628;BME280;68467;50.960;0.314;2023-03-21T11:20:53;99388.71;;;7.68;100.00
64628;BME280;68467;50.960;0.314;2023-03-21T11:23:25;99381.61;;;7.92;100.00
64628;BME280;68467;50.960;0.314;2023-03-21T11:25:54;99373.96;;;7.68;100.00
64628;BME280;68467;50.960;0.314;2023-03-21T11:28:24;99392.89;;;7.52;100.00
64628;BME280;68467;50.960;0.314;2023-03-21T11:30:53;99397.91;;;7.68;100.00
64628;BME280;68467;50.960;0.314;2023-03-21T11:33:24;99385.95;;;7.96;100.00
64628;BME280;68467;50.960;0.314;2023-03-21T11:36:01;99384.33;;;7.89;100.00
64628;BME280;68467;50.960;0.314;2023-03-21T11:38:31;99373.33;;;7.72;100.00
64628;BME280;68467;50.960;0.314;2023-03-21T11:41:00;99373.14;;;7.33;100.00
64628;BME280;68467;50.960;0.314;2023-03-21T11:43:30;99380.69;;;7.21;100.00
64628;BME280;68467;50.960;0.314;2023-03-21T11:45:59;99383.67;;;7.21;100.00
64628;BME280;68467;50.960;0.314;2023-03-21T11:48:39;99381.70;;;7.45;100.00
64628;BME280;68467;50.960;0.314;2023-03-21T11:51:15;99385.70;;;7.73;100.00
64628;BME280;68467;50.960;0.314;2023-03-21T11:53:48;99383.32;;;7.48;100.00
64628;BME280;68467;50.960;0.314;2023-03-21T11:56:24;99381.28;;;7.27;100.00
64628;BME280;68467;50.960;0.314;2023-03-21T11:59:03;99379.89;;;7.46;100.00
64628;BME280;68467;50.960;0.314;2023-03-21T12:01:39;99374.97;;;7.47;100.00
64628;BME280;68467;50.960;0.314;2023-03-21T12:04:24;99384.62;;;7.33;100.00
64628;BME280;68467;50.960;0.314;2023-03-21T12:07:02;99380.17;;;7.47;100.00
64628;BME280;68467;50.960;0.314;2023-03-21T12:09:39;99381.56;;;7.26;100.00
64628;BME280;68467;50.960;0.314;2023-03-21T12:12:26;99358.62;;;7.20;100.00
64628;BME280;68467;50.960;0.314;2023-03-21T12:15:02;99369.08;;;6.77;100.00
64628;BME280;68467;50.960;0.314;2023-03-21T12:17:42;99373.53;;;6.96;100.00
64628;BME280;68467;50.960;0.314;2023-03-21T12:20:27;99381.88;;;7.17;100.00
64628;BME280;68467;50.960;0.314;2023-03-21T12:23:09;99388.69;;;7.06;100.00
64628;BME280;68467;50.960;0.314;2023-03-21T12:25:44;99378.04;;;7.34;100.00
64628;BME280;68467;50.960;0.314;2023-03-21T12:28:24;99377.55;;;6.99;100.00
64628;BME280;68467;50.960;0.314;2023-03-21T12:30:59;99378.31;;;7.44;100.00
64628;BME280;68467;50.960;0.314;2023-03-21T12:33:51;99372.89;;;7.44;100.00
64628;BME280;68467;50.960;0.314;2023-03-21T12:36:30;99372.09;;;7.59;100.00
64628;BME280;68467;50.960;0.314;2023-03-21T12:39:13;99368.48;;;7.40;100.00
64628;BME280;68467;50.960;0.314;2023-03-21T12:41:53;99361.92;;;7.73;100.00
64628;BME280;68467;50.960;0.314;2023-03-21T12:44:26;99360.95;;;7.74;100.00
64628;BME280;68467;50.960;0.314;2023-03-21T12:46:58;99364.83;;;7.70;100.00
64628;BME280;68467;50.960;0.314;2023-03-21T12:49:30;99363.03;;;7.49;100.00
64628;BME280;68467;50.960;0.314;2023-03-21T12:52:03;99359.97;;;7.52;100.00
64628;BME280;68467;50.960;0.314;2023-03-21T12:54:35;99365.28;;;7.23;100.00
64628;BME280;68467;50.960;0.314;2023-03-21T12:57:06;99359.11;;;7.45;100.00
64628;BME280;68467;50.960;0.314;2023-03-21T12:59:36;99360.82;;;7.47;100.00
64628;BME280;68467;50.960;0.314;2023-03-21T13:02:16;99354.56;;;7.77;100.00
64628;BME280;68467;50.960;0.314;2023-03-21T13:04:49;99369.96;;;7.62;100.00
64628;BME280;68467;50.960;0.314;2023-03-21T13:07:20;99372.74;;;7.98;100.00
64628;BME280;68467;50.960;0.314;2023-03-21T13:09:49;99362.86;;;7.42;100.00
64628;BME280;68467;50.960;0.314;2023-03-21T13:12:27;99362.83;;;7.82;100.00
64628;BME280;68467;50.960;0.314;2023-03-21T13:15:10;99368.63;;;7.43;100.00
64628;BME280;68467;50.960;0.314;2023-03-21T13:17:43;99358.99;;;7.36;100.00
64628;BME280;68467;50.960;0.314;2023-03-21T13:20:18;99366.73;;;7.51;100.00
64628;BME280;68467;50.960;0.314;2023-03-21T13:22:48;99360.11;;;7.60;100.00